Liguori, MO (63057)

12:35 CDT le 19 avril 2015 (GMT -0500)
Olde Mill Estates | | Change Station
CLOSE
Current Station
Stations météorologiques personnelles
Location: Byrnes Mill, MO
Altitude: 568 ft
Stations météo à proximité

Alt. 568 ft 38.43 °N, 90.57 °W | Updated 3 seconds ago

Pluie
Pluie
67.1 ° F
Paraît 67.1 ° F
N
3.8
Vent Variable Vent de Ouest
Gusts 6.0 mph

Aujourd'hui
Haut(e) -- | Bas -- ° F
--% Risque de précip.
Hier
Haut(e) -- | Bas -- ° F
Precip. -- pouce
6:21 AM 7:42 PM
Nouvelle lune, 1% visible
Pression 29.57 pouce
Visibilité 9.0 Miles terrestres
Nuages Nuages épars 1000 ft
Nuageux 3000 ft
Couvert 9500 ft
Point de rosée 64 ° F
Humidité 90%
Précipitations 0.07 pouce
Profondeur de la couche neigeuse Non disponible.
UV 3 sur 12
Pollen 3.20 sur 12
Qualité de l'air Non disponible.
Flu Activity Local Activity
METAR KSUS 191654Z 00000KT 9SM -RA SCT010 BKN030 OVC095 18/16 A2959 RMK AO2 SLP014 P0002 T01830161

More Conditions Fewer Conditions

Pression 29.57 pouce
Visibilité 9.0 Miles terrestres
Nuages Nuages épars 1000 ft
Nuageux 3000 ft
Couvert 9500 ft
Point de rosée 64 ° F
Humidité 90%
Précipitations 0.07 pouce
Profondeur de la couche neigeuse Non disponible.
UV 3 sur 12
Pollen 3.20 sur 12
Qualité de l'air Non disponible.
Flu Activity Local Activity
METAR KSUS 191654Z 00000KT 9SM -RA SCT010 BKN030 OVC095 18/16 A2959 RMK AO2 SLP014 P0002 T01830161

More Conditions Fewer Conditions

10-Day Weather Forecast

Almanac

Astronomie

Apr. 19, 2015 Lever Coucher
Temps réel
Crépuscule civil
Crépuscule nautique
Crépuscule astronomique
Lune
Durée de lumière visible
Longueur du jour
Tomorrow will be .
, % of the Moon is Illuminated

Extrêmes aujourd'hui

State Highs State Lows

Community

WunderPhotos

Upload Photos

1,814,873 Photos téléchargées !

WunderBlogs® & News

Nearby

Qualité de l'air

  Qualité de l'air Indice de la qualité de l'air Polluant
Not available.

Épaisseur de neige

Station Depth Altitude

Activité sismique

Ville Distance Mag. Time & Date
Minimum magnitude displayed is 2.5.

Températures des eaux côtières

Lieu Température

Stations

Stations météo à proximité

Emplacement de la station Température Refroidissement éolien Point de rosée Humidité Vent Precip. Alt. Mise à jour Type